This is the latest recevied weather packets stored in our database for station/object VK4TOM-13. If no packets are shown the sender has not sent any weather packets the latest 10 day(s).
| Time | Temp. | Humidity | Pressure | Rain* | Wind** | Luminosity | Snow |
|---|---|---|---|---|---|---|---|
| 1788505842 | 31.11° C | 26% | 1016.9 hPa | 0 mm | - | - | - |
| 1788505241 | 31.67° C | 26% | 1016.9 hPa | 0 mm | - | - | - |
| 1788504640 | 32.22° C | 23% | 1016.8 hPa | 0 mm | - | - | - |
| 1788504039 | 33.33° C | 22% | 1016.8 hPa | 0 mm | - | - | - |
| 1788503438 | 34.44° C | 21% | 1016.8 hPa | 0 mm | - | - | - |
| 1788502836 | 35° C | 20% | 1016.8 hPa | 0 mm | - | - | - |
| 1788502235 | 35.56° C | 19% | 1016.7 hPa | 0 mm | - | - | - |
| 1788501634 | 36.67° C | 16% | 1016.7 hPa | 0 mm | - | - | - |
| 1788501033 | 36.67° C | 18% | 1016.7 hPa | 0 mm | - | - | - |
| 1788500432 | 36.67° C | 18% | 1016.6 hPa | 0 mm | - | - | - |
| 1788499831 | 36.67° C | 19% | 1016.7 hPa | 0 mm | - | - | - |
| 1788499230 | 37.22° C | 18% | 1016.7 hPa | 0 mm | - | - | - |
| 1788498629 | 37.22° C | 20% | 1016.9 hPa | 0 mm | - | - | - |
| 1788498028 | 36.67° C | 21% | 1016.9 hPa | 0 mm | - | - | - |
| 1788497427 | 36.67° C | 24% | 1017.1 hPa | 0 mm | - | - | - |
| 1788496826 | 36.67° C | 26% | 1017.1 hPa | 0 mm | - | - | - |
| 1788496225 | 36.11° C | 28% | 1017.3 hPa | 0 mm | - | - | - |
| 1788495624 | 36.11° C | 28% | 1017.5 hPa | 0 mm | - | - | - |
| 1788495023 | 35.56° C | 30% | 1017.6 hPa | 0 mm | - | - | - |
| 1788494422 | 35° C | 31% | 1017.8 hPa | 0 mm | - | - | - |
| 1788493821 | 34.44° C | 33% | 1018 hPa | 0 mm | - | - | - |
| 1788493219 | 34.44° C | 36% | 1018.2 hPa | 0 mm | - | - | - |
| 1788492618 | 33.89° C | 39% | 1018.4 hPa | 0 mm | - | - | - |
| 1788492017 | 33.89° C | 41% | 1018.7 hPa | 0 mm | - | - | - |
| 1788491416 | 33.33° C | 49% | 1018.9 hPa | 0 mm | - | - | - |
* Rain since midnight (hover to see other rain measurements)
** Current wind speed in m/s (hover to see current wind gust speed)